sensor_id;sensor_type;location;lat;lon;timestamp;temperature;humidity
15698;DHT22;7949;48.726;9.102;2022-12-08T00:01:22;1.20;99.90
15698;DHT22;7949;48.726;9.102;2022-12-08T00:03:50;1.20;99.90
15698;DHT22;7949;48.726;9.102;2022-12-08T00:06:22;1.10;99.90
15698;DHT22;7949;48.726;9.102;2022-12-08T00:09:16;1.10;99.90
15698;DHT22;7949;48.726;9.102;2022-12-08T00:11:52;1.10;99.90
15698;DHT22;7949;48.726;9.102;2022-12-08T00:14:21;1.00;99.90
15698;DHT22;7949;48.726;9.102;2022-12-08T00:16:48;1.00;99.90
15698;DHT22;7949;48.726;9.102;2022-12-08T00:19:15;1.00;99.90
15698;DHT22;7949;48.726;9.102;2022-12-08T00:21:41;1.00;99.90
15698;DHT22;7949;48.726;9.102;2022-12-08T00:24:08;0.90;99.90
15698;DHT22;7949;48.726;9.102;2022-12-08T00:26:37;0.80;99.90
15698;DHT22;7949;48.726;9.102;2022-12-08T00:29:04;0.70;99.90
15698;DHT22;7949;48.726;9.102;2022-12-08T00:31:31;0.60;99.90
15698;DHT22;7949;48.726;9.102;2022-12-08T00:33:58;0.40;99.90
15698;DHT22;7949;48.726;9.102;2022-12-08T00:36:25;0.30;99.90
15698;DHT22;7949;48.726;9.102;2022-12-08T00:38:52;0.20;99.90
15698;DHT22;7949;48.726;9.102;2022-12-08T00:41:21;0.20;99.90
15698;DHT22;7949;48.726;9.102;2022-12-08T00:44:11;0.00;99.90
15698;DHT22;7949;48.726;9.102;2022-12-08T00:46:39;0.20;99.90
15698;DHT22;7949;48.726;9.102;2022-12-08T00:49:06;0.10;99.90
15698;DHT22;7949;48.726;9.102;2022-12-08T00:51:33;0.00;99.90
15698;DHT22;7949;48.726;9.102;2022-12-08T00:54:00;0.00;99.90
15698;DHT22;7949;48.726;9.102;2022-12-08T00:56:27;-0.10;99.90
15698;DHT22;7949;48.726;9.102;2022-12-08T00:58:54;-0.40;99.90
15698;DHT22;7949;48.726;9.102;2022-12-08T01:01:22;-0.20;99.90
15698;DHT22;7949;48.726;9.102;2022-12-08T01:03:49;-0.40;99.90
15698;DHT22;7949;48.726;9.102;2022-12-08T01:06:16;-0.40;99.90
15698;DHT22;7949;48.726;9.102;2022-12-08T01:08:43;-0.40;99.90
15698;DHT22;7949;48.726;9.102;2022-12-08T01:11:12;-0.50;99.90
15698;DHT22;7949;48.726;9.102;2022-12-08T01:13:40;-0.60;99.90
15698;DHT22;7949;48.726;9.102;2022-12-08T01:16:07;-0.60;99.90
15698;DHT22;7949;48.726;9.102;2022-12-08T01:18:36;-0.70;99.90
15698;DHT22;7949;48.726;9.102;2022-12-08T01:21:03;-0.70;99.90
15698;DHT22;7949;48.726;9.102;2022-12-08T01:23:29;-0.70;99.90
15698;DHT22;7949;48.726;9.102;2022-12-08T01:26:00;-0.80;99.90
15698;DHT22;7949;48.726;9.102;2022-12-08T01:28:28;-0.80;99.90
15698;DHT22;7949;48.726;9.102;2022-12-08T01:30:55;-0.80;99.90
15698;DHT22;7949;48.726;9.102;2022-12-08T01:33:22;-0.80;99.90
15698;DHT22;7949;48.726;9.102;2022-12-08T01:35:50;-0.80;99.90
15698;DHT22;7949;48.726;9.102;2022-12-08T01:38:17;-0.70;99.90
15698;DHT22;7949;48.726;9.102;2022-12-08T01:40:44;-0.80;99.90
15698;DHT22;7949;48.726;9.102;2022-12-08T01:43:13;-0.90;99.90
15698;DHT22;7949;48.726;9.102;2022-12-08T01:45:41;-1.00;99.90
15698;DHT22;7949;48.726;9.102;2022-12-08T01:48:10;-1.10;99.90
15698;DHT22;7949;48.726;9.102;2022-12-08T01:50:40;-1.10;99.90
15698;DHT22;7949;48.726;9.102;2022-12-08T01:53:12;-1.20;99.90
15698;DHT22;7949;48.726;9.102;2022-12-08T01:55:42;-1.00;99.90
15698;DHT22;7949;48.726;9.102;2022-12-08T01:58:13;-1.10;99.90
15698;DHT22;7949;48.726;9.102;2022-12-08T02:00:42;-1.10;99.90
15698;DHT22;7949;48.726;9.102;2022-12-08T02:03:13;-1.10;99.90
15698;DHT22;7949;48.726;9.102;2022-12-08T02:05:42;-1.10;99.90
15698;DHT22;7949;48.726;9.102;2022-12-08T02:08:12;-1.10;99.90
15698;DHT22;7949;48.726;9.102;2022-12-08T02:10:40;-1.10;99.90
15698;DHT22;7949;48.726;9.102;2022-12-08T02:13:10;-1.10;99.90
15698;DHT22;7949;48.726;9.102;2022-12-08T02:15:44;-1.20;99.90
15698;DHT22;7949;48.726;9.102;2022-12-08T02:18:40;-1.20;99.90
15698;DHT22;7949;48.726;9.102;2022-12-08T02:21:14;-1.20;99.90
15698;DHT22;7949;48.726;9.102;2022-12-08T02:23:53;-1.20;99.90
15698;DHT22;7949;48.726;9.102;2022-12-08T02:26:50;-1.20;99.90
15698;DHT22;7949;48.726;9.102;2022-12-08T02:29:48;-1.00;99.90
15698;DHT22;7949;48.726;9.102;2022-12-08T02:32:33;-0.90;99.90
15698;DHT22;7949;48.726;9.102;2022-12-08T02:35:10;-0.90;99.90
15698;DHT22;7949;48.726;9.102;2022-12-08T02:37:42;-1.00;99.90
15698;DHT22;7949;48.726;9.102;2022-12-08T02:40:16;-1.00;99.90
15698;DHT22;7949;48.726;9.102;2022-12-08T02:42:49;-1.10;99.90
15698;DHT22;7949;48.726;9.102;2022-12-08T02:45:23;-1.20;99.90
15698;DHT22;7949;48.726;9.102;2022-12-08T02:47:51;-1.20;99.90
15698;DHT22;7949;48.726;9.102;2022-12-08T02:50:20;-0.90;99.90
15698;DHT22;7949;48.726;9.102;2022-12-08T02:52:47;-1.20;99.90
15698;DHT22;7949;48.726;9.102;2022-12-08T02:55:19;-1.20;99.90
15698;DHT22;7949;48.726;9.102;2022-12-08T02:58:09;-1.20;99.90
15698;DHT22;7949;48.726;9.102;2022-12-08T03:00:51;-1.10;99.90
15698;DHT22;7949;48.726;9.102;2022-12-08T03:03:28;-1.10;99.90
15698;DHT22;7949;48.726;9.102;2022-12-08T03:06:06;-1.10;99.90
15698;DHT22;7949;48.726;9.102;2022-12-08T03:08:41;-1.00;99.90
15698;DHT22;7949;48.726;9.102;2022-12-08T03:11:15;-1.00;99.90
15698;DHT22;7949;48.726;9.102;2022-12-08T03:13:46;-1.00;99.90
15698;DHT22;7949;48.726;9.102;2022-12-08T03:16:17;-0.90;99.90
15698;DHT22;7949;48.726;9.102;2022-12-08T03:18:47;-0.90;99.90
15698;DHT22;7949;48.726;9.102;2022-12-08T03:21:17;-0.80;99.90
15698;DHT22;7949;48.726;9.102;2022-12-08T03:23:47;-0.80;99.90
15698;DHT22;7949;48.726;9.102;2022-12-08T03:26:18;-0.70;99.90
15698;DHT22;7949;48.726;9.102;2022-12-08T03:28:47;-0.70;99.90
15698;DHT22;7949;48.726;9.102;2022-12-08T03:31:15;-0.70;99.90
15698;DHT22;7949;48.726;9.102;2022-12-08T03:33:45;-0.80;99.90
15698;DHT22;7949;48.726;9.102;2022-12-08T03:36:13;-0.90;99.90
15698;DHT22;7949;48.726;9.102;2022-12-08T03:38:44;-1.00;99.90
15698;DHT22;7949;48.726;9.102;2022-12-08T03:41:12;-1.10;99.90
15698;DHT22;7949;48.726;9.102;2022-12-08T03:43:45;-1.20;99.90
15698;DHT22;7949;48.726;9.102;2022-12-08T03:46:13;-1.20;99.90
15698;DHT22;7949;48.726;9.102;2022-12-08T03:48:39;-1.30;99.90
15698;DHT22;7949;48.726;9.102;2022-12-08T03:51:06;-1.30;99.90
15698;DHT22;7949;48.726;9.102;2022-12-08T03:53:33;-1.40;99.90
15698;DHT22;7949;48.726;9.102;2022-12-08T03:56:04;-1.40;99.90
15698;DHT22;7949;48.726;9.102;2022-12-08T03:58:31;-1.40;99.90
15698;DHT22;7949;48.726;9.102;2022-12-08T04:00:58;-1.30;99.90
15698;DHT22;7949;48.726;9.102;2022-12-08T04:03:24;-1.40;99.90
15698;DHT22;7949;48.726;9.102;2022-12-08T04:05:51;-1.40;99.90
15698;DHT22;7949;48.726;9.102;2022-12-08T04:08:18;-1.40;99.90
15698;DHT22;7949;48.726;9.102;2022-12-08T04:10:45;-1.40;99.90
15698;DHT22;7949;48.726;9.102;2022-12-08T04:13:13;-1.40;99.90
15698;DHT22;7949;48.726;9.102;2022-12-08T04:15:44;-1.50;99.90
15698;DHT22;7949;48.726;9.102;2022-12-08T04:18:10;-1.50;99.90
15698;DHT22;7949;48.726;9.102;2022-12-08T04:20:38;-1.50;99.90
15698;DHT22;7949;48.726;9.102;2022-12-08T04:23:05;-1.60;99.90
15698;DHT22;7949;48.726;9.102;2022-12-08T04:25:32;-1.60;99.90
15698;DHT22;7949;48.726;9.102;2022-12-08T04:27:59;-1.50;99.90
15698;DHT22;7949;48.726;9.102;2022-12-08T04:30:27;-1.60;99.90
15698;DHT22;7949;48.726;9.102;2022-12-08T04:32:54;-1.60;99.90
15698;DHT22;7949;48.726;9.102;2022-12-08T04:35:21;-1.60;99.90
15698;DHT22;7949;48.726;9.102;2022-12-08T04:37:48;-1.70;99.90
15698;DHT22;7949;48.726;9.102;2022-12-08T04:40:15;-1.60;99.90
15698;DHT22;7949;48.726;9.102;2022-12-08T04:42:41;-1.60;99.90
15698;DHT22;7949;48.726;9.102;2022-12-08T04:45:09;-1.70;99.90
15698;DHT22;7949;48.726;9.102;2022-12-08T04:47:37;-1.80;99.90
15698;DHT22;7949;48.726;9.102;2022-12-08T04:50:05;-1.70;99.90
15698;DHT22;7949;48.726;9.102;2022-12-08T04:52:32;-1.60;99.90
15698;DHT22;7949;48.726;9.102;2022-12-08T04:54:59;-1.60;99.90
15698;DHT22;7949;48.726;9.102;2022-12-08T04:57:26;-1.70;99.90
15698;DHT22;7949;48.726;9.102;2022-12-08T04:59:53;-1.70;99.90
15698;DHT22;7949;48.726;9.102;2022-12-08T05:02:20;-1.80;99.90
15698;DHT22;7949;48.726;9.102;2022-12-08T05:04:48;-1.80;99.90
15698;DHT22;7949;48.726;9.102;2022-12-08T05:07:15;-1.70;99.90
15698;DHT22;7949;48.726;9.102;2022-12-08T05:09:41;-1.70;99.90
15698;DHT22;7949;48.726;9.102;2022-12-08T05:12:09;-1.70;99.90
15698;DHT22;7949;48.726;9.102;2022-12-08T05:14:36;-1.70;99.90
15698;DHT22;7949;48.726;9.102;2022-12-08T05:17:03;-1.80;99.90
15698;DHT22;7949;48.726;9.102;2022-12-08T05:19:29;-1.80;99.90
15698;DHT22;7949;48.726;9.102;2022-12-08T05:21:57;-1.80;99.90
15698;DHT22;7949;48.726;9.102;2022-12-08T05:24:24;-1.80;99.90
15698;DHT22;7949;48.726;9.102;2022-12-08T05:26:51;-1.80;99.90
15698;DHT22;7949;48.726;9.102;2022-12-08T05:29:18;-1.80;99.90
15698;DHT22;7949;48.726;9.102;2022-12-08T05:31:45;-1.80;99.90
15698;DHT22;7949;48.726;9.102;2022-12-08T05:34:12;-1.70;99.90
15698;DHT22;7949;48.726;9.102;2022-12-08T05:36:39;-1.60;99.90
15698;DHT22;7949;48.726;9.102;2022-12-08T05:39:08;-1.50;99.90
15698;DHT22;7949;48.726;9.102;2022-12-08T05:41:37;-1.40;99.90
15698;DHT22;7949;48.726;9.102;2022-12-08T05:44:04;-1.30;99.90
15698;DHT22;7949;48.726;9.102;2022-12-08T05:46:32;-1.30;99.90
15698;DHT22;7949;48.726;9.102;2022-12-08T05:48:59;-1.30;99.90
15698;DHT22;7949;48.726;9.102;2022-12-08T05:51:26;-1.30;99.90
15698;DHT22;7949;48.726;9.102;2022-12-08T05:53:54;-1.20;99.90
15698;DHT22;7949;48.726;9.102;2022-12-08T05:56:23;-1.20;99.90
15698;DHT22;7949;48.726;9.102;2022-12-08T05:58:50;-1.20;99.90
15698;DHT22;7949;48.726;9.102;2022-12-08T06:01:18;-0.70;99.90
15698;DHT22;7949;48.726;9.102;2022-12-08T06:03:45;-1.10;99.90
15698;DHT22;7949;48.726;9.102;2022-12-08T06:06:13;-1.10;99.90
15698;DHT22;7949;48.726;9.102;2022-12-08T06:08:40;-1.10;99.90
15698;DHT22;7949;48.726;9.102;2022-12-08T06:11:07;-1.10;99.90
15698;DHT22;7949;48.726;9.102;2022-12-08T06:13:35;-1.00;99.90
15698;DHT22;7949;48.726;9.102;2022-12-08T06:16:03;-1.20;99.90
15698;DHT22;7949;48.726;9.102;2022-12-08T06:18:31;-1.10;99.90
15698;DHT22;7949;48.726;9.102;2022-12-08T06:21:02;-1.20;99.90
15698;DHT22;7949;48.726;9.102;2022-12-08T06:23:29;-1.30;99.90
15698;DHT22;7949;48.726;9.102;2022-12-08T06:25:59;-1.30;99.90
15698;DHT22;7949;48.726;9.102;2022-12-08T06:28:26;-1.40;99.90
15698;DHT22;7949;48.726;9.102;2022-12-08T06:30:55;-1.30;99.90
15698;DHT22;7949;48.726;9.102;2022-12-08T06:33:22;-1.50;99.90
15698;DHT22;7949;48.726;9.102;2022-12-08T06:35:49;-1.60;99.90
15698;DHT22;7949;48.726;9.102;2022-12-08T06:38:16;-1.60;99.90
15698;DHT22;7949;48.726;9.102;2022-12-08T06:40:43;-1.60;99.90
15698;DHT22;7949;48.726;9.102;2022-12-08T06:43:10;-1.50;99.90
15698;DHT22;7949;48.726;9.102;2022-12-08T06:45:39;-1.50;99.90
15698;DHT22;7949;48.726;9.102;2022-12-08T06:48:07;-1.40;99.90
15698;DHT22;7949;48.726;9.102;2022-12-08T06:50:34;-1.40;99.90
15698;DHT22;7949;48.726;9.102;2022-12-08T06:53:01;-1.50;99.90
15698;DHT22;7949;48.726;9.102;2022-12-08T06:55:28;-1.50;99.90
15698;DHT22;7949;48.726;9.102;2022-12-08T06:57:55;-1.30;99.90
15698;DHT22;7949;48.726;9.102;2022-12-08T07:00:22;-1.60;99.90
15698;DHT22;7949;48.726;9.102;2022-12-08T07:02:49;-1.60;99.90
15698;DHT22;7949;48.726;9.102;2022-12-08T07:05:17;-1.60;99.90
15698;DHT22;7949;48.726;9.102;2022-12-08T07:07:44;-1.50;99.90
15698;DHT22;7949;48.726;9.102;2022-12-08T07:10:11;-1.40;99.90
15698;DHT22;7949;48.726;9.102;2022-12-08T07:12:38;-1.60;99.90
15698;DHT22;7949;48.726;9.102;2022-12-08T07:15:06;-1.60;99.90
15698;DHT22;7949;48.726;9.102;2022-12-08T07:17:33;-1.70;99.90
15698;DHT22;7949;48.726;9.102;2022-12-08T07:20:00;-1.60;99.90
15698;DHT22;7949;48.726;9.102;2022-12-08T07:22:28;-1.70;99.90
15698;DHT22;7949;48.726;9.102;2022-12-08T07:24:55;-1.50;99.90
15698;DHT22;7949;48.726;9.102;2022-12-08T07:27:22;-1.60;99.90
15698;DHT22;7949;48.726;9.102;2022-12-08T07:29:49;-1.60;99.90
15698;DHT22;7949;48.726;9.102;2022-12-08T07:32:16;-1.60;99.90
15698;DHT22;7949;48.726;9.102;2022-12-08T07:34:43;-1.70;99.90
15698;DHT22;7949;48.726;9.102;2022-12-08T07:37:10;-1.70;99.90
15698;DHT22;7949;48.726;9.102;2022-12-08T07:39:38;-1.80;99.90
15698;DHT22;7949;48.726;9.102;2022-12-08T07:42:05;-1.80;99.90
15698;DHT22;7949;48.726;9.102;2022-12-08T07:44:32;-1.80;99.90
15698;DHT22;7949;48.726;9.102;2022-12-08T07:46:59;-1.80;99.90
15698;DHT22;7949;48.726;9.102;2022-12-08T07:49:26;-1.80;99.90
15698;DHT22;7949;48.726;9.102;2022-12-08T07:51:52;-1.80;99.90
15698;DHT22;7949;48.726;9.102;2022-12-08T07:54:19;-0.50;99.90
15698;DHT22;7949;48.726;9.102;2022-12-08T07:56:47;-1.70;99.90
15698;DHT22;7949;48.726;9.102;2022-12-08T07:59:14;-1.60;99.90
15698;DHT22;7949;48.726;9.102;2022-12-08T08:01:41;-1.60;99.90
15698;DHT22;7949;48.726;9.102;2022-12-08T08:04:09;-1.60;99.90
15698;DHT22;7949;48.726;9.102;2022-12-08T08:06:36;-1.50;99.90
15698;DHT22;7949;48.726;9.102;2022-12-08T08:09:03;-1.50;99.90
15698;DHT22;7949;48.726;9.102;2022-12-08T08:11:30;-1.40;99.90
15698;DHT22;7949;48.726;9.102;2022-12-08T08:13:58;-1.20;99.90
15698;DHT22;7949;48.726;9.102;2022-12-08T08:16:25;-1.20;99.90
15698;DHT22;7949;48.726;9.102;2022-12-08T08:18:52;-1.30;99.90
15698;DHT22;7949;48.726;9.102;2022-12-08T08:21:20;-1.10;99.90
15698;DHT22;7949;48.726;9.102;2022-12-08T08:23:47;-1.20;99.90
15698;DHT22;7949;48.726;9.102;2022-12-08T08:26:14;-1.20;99.90
15698;DHT22;7949;48.726;9.102;2022-12-08T08:28:41;-1.10;99.90
15698;DHT22;7949;48.726;9.102;2022-12-08T08:31:11;-1.10;99.90
15698;DHT22;7949;48.726;9.102;2022-12-08T08:33:38;-1.10;99.90
15698;DHT22;7949;48.726;9.102;2022-12-08T08:36:06;-0.90;99.90
15698;DHT22;7949;48.726;9.102;2022-12-08T08:38:34;-0.90;99.90
15698;DHT22;7949;48.726;9.102;2022-12-08T08:41:07;-0.80;99.90
15698;DHT22;7949;48.726;9.102;2022-12-08T08:43:34;-0.70;99.90
15698;DHT22;7949;48.726;9.102;2022-12-08T08:46:01;-0.60;99.90
15698;DHT22;7949;48.726;9.102;2022-12-08T08:48:30;-0.50;99.90
15698;DHT22;7949;48.726;9.102;2022-12-08T08:51:04;-0.40;99.90
15698;DHT22;7949;48.726;9.102;2022-12-08T08:53:31;-0.40;99.90
15698;DHT22;7949;48.726;9.102;2022-12-08T08:55:59;-0.30;99.90
15698;DHT22;7949;48.726;9.102;2022-12-08T08:58:26;-0.30;99.90
15698;DHT22;7949;48.726;9.102;2022-12-08T09:00:52;-0.20;99.90
15698;DHT22;7949;48.726;9.102;2022-12-08T09:03:19;-0.20;99.90
15698;DHT22;7949;48.726;9.102;2022-12-08T09:05:49;-0.10;99.90
15698;DHT22;7949;48.726;9.102;2022-12-08T09:08:16;0.00;99.90
15698;DHT22;7949;48.726;9.102;2022-12-08T09:10:43;0.10;99.90
15698;DHT22;7949;48.726;9.102;2022-12-08T09:13:10;0.10;99.90
15698;DHT22;7949;48.726;9.102;2022-12-08T09:15:37;0.20;99.90
15698;DHT22;7949;48.726;9.102;2022-12-08T09:18:04;0.30;99.90
15698;DHT22;7949;48.726;9.102;2022-12-08T09:20:32;0.30;99.90
15698;DHT22;7949;48.726;9.102;2022-12-08T09:23:00;0.40;99.90
15698;DHT22;7949;48.726;9.102;2022-12-08T09:25:27;0.40;99.90
15698;DHT22;7949;48.726;9.102;2022-12-08T09:27:54;0.50;99.90
15698;DHT22;7949;48.726;9.102;2022-12-08T09:30:21;0.50;99.90
15698;DHT22;7949;48.726;9.102;2022-12-08T09:32:48;0.60;99.90
15698;DHT22;7949;48.726;9.102;2022-12-08T09:35:15;0.70;99.90
15698;DHT22;7949;48.726;9.102;2022-12-08T09:37:42;0.70;99.90
15698;DHT22;7949;48.726;9.102;2022-12-08T09:40:16;0.70;99.90
15698;DHT22;7949;48.726;9.102;2022-12-08T09:42:48;0.80;99.90
15698;DHT22;7949;48.726;9.102;2022-12-08T09:45:17;0.80;99.90
15698;DHT22;7949;48.726;9.102;2022-12-08T09:47:47;0.80;99.90
15698;DHT22;7949;48.726;9.102;2022-12-08T09:50:21;0.90;99.90
15698;DHT22;7949;48.726;9.102;2022-12-08T09:52:58;0.90;99.90
15698;DHT22;7949;48.726;9.102;2022-12-08T09:55:37;1.00;99.90
15698;DHT22;7949;48.726;9.102;2022-12-08T09:58:11;1.00;99.90
15698;DHT22;7949;48.726;9.102;2022-12-08T10:00:40;1.10;99.90
15698;DHT22;7949;48.726;9.102;2022-12-08T10:03:10;1.10;99.90
15698;DHT22;7949;48.726;9.102;2022-12-08T10:05:42;1.40;99.90
15698;DHT22;7949;48.726;9.102;2022-12-08T10:08:17;1.10;99.90
15698;DHT22;7949;48.726;9.102;2022-12-08T10:10:52;1.10;99.90
15698;DHT22;7949;48.726;9.102;2022-12-08T10:13:30;1.20;99.90
15698;DHT22;7949;48.726;9.102;2022-12-08T10:16:08;1.30;99.90
15698;DHT22;7949;48.726;9.102;2022-12-08T10:18:36;1.40;99.90
15698;DHT22;7949;48.726;9.102;2022-12-08T10:21:12;1.40;99.90
15698;DHT22;7949;48.726;9.102;2022-12-08T10:23:43;1.50;99.90
15698;DHT22;7949;48.726;9.102;2022-12-08T10:26:13;1.50;99.90
15698;DHT22;7949;48.726;9.102;2022-12-08T10:28:40;1.50;99.90
15698;DHT22;7949;48.726;9.102;2022-12-08T10:31:14;1.50;99.90
15698;DHT22;7949;48.726;9.102;2022-12-08T10:33:41;1.50;99.90
15698;DHT22;7949;48.726;9.102;2022-12-08T10:36:09;1.60;99.90
15698;DHT22;7949;48.726;9.102;2022-12-08T10:38:38;1.70;99.90
15698;DHT22;7949;48.726;9.102;2022-12-08T10:41:09;1.80;99.90
15698;DHT22;7949;48.726;9.102;2022-12-08T10:43:43;1.90;99.90
15698;DHT22;7949;48.726;9.102;2022-12-08T10:46:12;2.10;99.90
15698;DHT22;7949;48.726;9.102;2022-12-08T10:48:50;2.20;99.90
15698;DHT22;7949;48.726;9.102;2022-12-08T10:51:27;2.20;99.90
15698;DHT22;7949;48.726;9.102;2022-12-08T10:53:54;2.40;99.90
15698;DHT22;7949;48.726;9.102;2022-12-08T10:56:24;2.50;99.90
15698;DHT22;7949;48.726;9.102;2022-12-08T10:59:11;2.60;99.90
15698;DHT22;7949;48.726;9.102;2022-12-08T11:01:40;2.80;99.90
15698;DHT22;7949;48.726;9.102;2022-12-08T11:04:14;3.00;99.90
15698;DHT22;7949;48.726;9.102;2022-12-08T11:06:41;3.30;99.90
15698;DHT22;7949;48.726;9.102;2022-12-08T11:09:23;3.40;99.90
15698;DHT22;7949;48.726;9.102;2022-12-08T11:11:53;3.60;99.90
15698;DHT22;7949;48.726;9.102;2022-12-08T11:14:23;4.20;99.90
15698;DHT22;7949;48.726;9.102;2022-12-08T11:16:53;4.70;99.90
15698;DHT22;7949;48.726;9.102;2022-12-08T11:19:24;5.20;99.90
15698;DHT22;7949;48.726;9.102;2022-12-08T11:21:52;5.90;99.90
15698;DHT22;7949;48.726;9.102;2022-12-08T11:24:23;6.50;99.90
15698;DHT22;7949;48.726;9.102;2022-12-08T11:26:55;6.80;99.90
15698;DHT22;7949;48.726;9.102;2022-12-08T11:29:26;7.00;99.90
15698;DHT22;7949;48.726;9.102;2022-12-08T11:31:56;7.10;99.90
15698;DHT22;7949;48.726;9.102;2022-12-08T11:34:32;7.70;99.90
15698;DHT22;7949;48.726;9.102;2022-12-08T11:37:01;7.90;99.90
15698;DHT22;7949;48.726;9.102;2022-12-08T11:39:32;8.10;99.90
15698;DHT22;7949;48.726;9.102;2022-12-08T11:42:00;8.00;99.90
15698;DHT22;7949;48.726;9.102;2022-12-08T11:44:34;8.10;99.90
15698;DHT22;7949;48.726;9.102;2022-12-08T11:47:05;8.10;99.90
15698;DHT22;7949;48.726;9.102;2022-12-08T11:49:36;7.80;99.90
15698;DHT22;7949;48.726;9.102;2022-12-08T11:52:08;7.40;99.90
15698;DHT22;7949;48.726;9.102;2022-12-08T11:54:43;7.10;99.90
15698;DHT22;7949;48.726;9.102;2022-12-08T11:57:12;6.70;99.90
15698;DHT22;7949;48.726;9.102;2022-12-08T11:59:44;6.60;99.90
15698;DHT22;7949;48.726;9.102;2022-12-08T12:02:13;6.50;99.90
15698;DHT22;7949;48.726;9.102;2022-12-08T12:04:45;6.70;99.90
15698;DHT22;7949;48.726;9.102;2022-12-08T12:07:37;6.60;99.90
15698;DHT22;7949;48.726;9.102;2022-12-08T12:10:21;6.30;99.90
15698;DHT22;7949;48.726;9.102;2022-12-08T12:13:02;5.80;99.90
15698;DHT22;7949;48.726;9.102;2022-12-08T12:16:01;5.00;99.90
15698;DHT22;7949;48.726;9.102;2022-12-08T12:18:37;4.70;99.90
15698;DHT22;7949;48.726;9.102;2022-12-08T12:21:10;4.20;99.90
15698;DHT22;7949;48.726;9.102;2022-12-08T12:23:40;4.10;99.90
15698;DHT22;7949;48.726;9.102;2022-12-08T12:26:15;4.30;99.90
15698;DHT22;7949;48.726;9.102;2022-12-08T12:28:47;4.50;99.90
15698;DHT22;7949;48.726;9.102;2022-12-08T12:31:22;4.60;99.90
15698;DHT22;7949;48.726;9.102;2022-12-08T12:33:50;4.70;99.90
15698;DHT22;7949;48.726;9.102;2022-12-08T12:36:19;5.70;99.90
15698;DHT22;7949;48.726;9.102;2022-12-08T12:38:49;6.60;99.90
15698;DHT22;7949;48.726;9.102;2022-12-08T12:41:36;7.10;99.90
15698;DHT22;7949;48.726;9.102;2022-12-08T12:44:40;7.60;99.90
15698;DHT22;7949;48.726;9.102;2022-12-08T12:47:45;8.10;99.90
15698;DHT22;7949;48.726;9.102;2022-12-08T12:50:13;8.30;99.90
15698;DHT22;7949;48.726;9.102;2022-12-08T12:52:45;8.40;99.90
15698;DHT22;7949;48.726;9.102;2022-12-08T12:58:22;8.50;99.90
15698;DHT22;7949;48.726;9.102;2022-12-08T13:04:05;7.60;99.90
15698;DHT22;7949;48.726;9.102;2022-12-08T13:06:37;8.10;99.90
15698;DHT22;7949;48.726;9.102;2022-12-08T13:09:04;8.60;99.90
15698;DHT22;7949;48.726;9.102;2022-12-08T13:11:45;8.10;99.90
15698;DHT22;7949;48.726;9.102;2022-12-08T13:14:26;7.40;99.90
15698;DHT22;7949;48.726;9.102;2022-12-08T13:16:56;6.90;99.90
15698;DHT22;7949;48.726;9.102;2022-12-08T13:19:25;6.50;99.90
15698;DHT22;7949;48.726;9.102;2022-12-08T13:21:54;5.70;99.90
15698;DHT22;7949;48.726;9.102;2022-12-08T13:24:29;5.00;99.90
15698;DHT22;7949;48.726;9.102;2022-12-08T13:27:30;4.60;99.90
15698;DHT22;7949;48.726;9.102;2022-12-08T13:33:02;3.80;99.90
15698;DHT22;7949;48.726;9.102;2022-12-08T13:35:43;3.60;99.90
15698;DHT22;7949;48.726;9.102;2022-12-08T13:38:15;3.40;99.90
15698;DHT22;7949;48.726;9.102;2022-12-08T13:40:43;3.20;99.90
15698;DHT22;7949;48.726;9.102;2022-12-08T13:43:16;3.20;99.90
15698;DHT22;7949;48.726;9.102;2022-12-08T13:45:45;3.20;99.90
15698;DHT22;7949;48.726;9.102;2022-12-08T13:48:16;3.10;99.90
15698;DHT22;7949;48.726;9.102;2022-12-08T13:50:52;3.10;99.90
15698;DHT22;7949;48.726;9.102;2022-12-08T13:53:22;3.10;99.90
15698;DHT22;7949;48.726;9.102;2022-12-08T13:55:52;3.10;99.90
15698;DHT22;7949;48.726;9.102;2022-12-08T13:58:24;3.00;99.90
15698;DHT22;7949;48.726;9.102;2022-12-08T14:01:04;2.90;99.90
15698;DHT22;7949;48.726;9.102;2022-12-08T14:03:42;2.80;99.90
15698;DHT22;7949;48.726;9.102;2022-12-08T14:06:15;2.70;99.90
15698;DHT22;7949;48.726;9.102;2022-12-08T14:08:45;2.80;99.90
15698;DHT22;7949;48.726;9.102;2022-12-08T14:11:23;2.60;99.90
15698;DHT22;7949;48.726;9.102;2022-12-08T14:14:03;2.60;99.90
15698;DHT22;7949;48.726;9.102;2022-12-08T14:16:37;2.70;99.90
15698;DHT22;7949;48.726;9.102;2022-12-08T14:19:13;2.70;99.90
15698;DHT22;7949;48.726;9.102;2022-12-08T14:21:45;2.70;99.90
15698;DHT22;7949;48.726;9.102;2022-12-08T14:24:13;2.70;99.90
15698;DHT22;7949;48.726;9.102;2022-12-08T14:26:40;2.60;99.90
15698;DHT22;7949;48.726;9.102;2022-12-08T14:29:11;2.60;99.90
15698;DHT22;7949;48.726;9.102;2022-12-08T14:31:43;2.60;99.90
15698;DHT22;7949;48.726;9.102;2022-12-08T14:34:09;2.50;99.90
15698;DHT22;7949;48.726;9.102;2022-12-08T14:36:37;2.40;99.90
15698;DHT22;7949;48.726;9.102;2022-12-08T14:39:07;2.40;99.90
15698;DHT22;7949;48.726;9.102;2022-12-08T14:41:33;2.40;99.90
15698;DHT22;7949;48.726;9.102;2022-12-08T14:44:01;2.40;99.90
15698;DHT22;7949;48.726;9.102;2022-12-08T14:46:28;3.00;99.90
15698;DHT22;7949;48.726;9.102;2022-12-08T14:48:55;2.40;99.90
15698;DHT22;7949;48.726;9.102;2022-12-08T14:51:27;2.40;99.90
15698;DHT22;7949;48.726;9.102;2022-12-08T14:53:57;2.40;99.90
15698;DHT22;7949;48.726;9.102;2022-12-08T14:56:31;2.40;99.90
15698;DHT22;7949;48.726;9.102;2022-12-08T14:59:04;2.30;99.90
15698;DHT22;7949;48.726;9.102;2022-12-08T15:01:32;2.30;99.90
15698;DHT22;7949;48.726;9.102;2022-12-08T15:04:02;2.30;99.90
15698;DHT22;7949;48.726;9.102;2022-12-08T15:06:33;2.20;99.90
15698;DHT22;7949;48.726;9.102;2022-12-08T15:09:15;2.20;99.90
15698;DHT22;7949;48.726;9.102;2022-12-08T15:11:43;2.30;99.90
15698;DHT22;7949;48.726;9.102;2022-12-08T15:14:28;2.40;99.90
15698;DHT22;7949;48.726;9.102;2022-12-08T15:16:56;2.40;99.90
15698;DHT22;7949;48.726;9.102;2022-12-08T15:19:26;2.30;99.90
15698;DHT22;7949;48.726;9.102;2022-12-08T15:21:55;2.30;99.90
15698;DHT22;7949;48.726;9.102;2022-12-08T15:24:24;2.30;99.90
15698;DHT22;7949;48.726;9.102;2022-12-08T15:26:52;2.30;99.90
15698;DHT22;7949;48.726;9.102;2022-12-08T15:29:21;2.30;99.90
15698;DHT22;7949;48.726;9.102;2022-12-08T15:31:50;2.30;99.90
15698;DHT22;7949;48.726;9.102;2022-12-08T15:34:18;2.30;99.90
15698;DHT22;7949;48.726;9.102;2022-12-08T15:36:45;2.30;99.90
15698;DHT22;7949;48.726;9.102;2022-12-08T15:39:28;2.20;99.90
15698;DHT22;7949;48.726;9.102;2022-12-08T15:41:58;2.20;99.90
15698;DHT22;7949;48.726;9.102;2022-12-08T15:44:25;2.10;99.90
15698;DHT22;7949;48.726;9.102;2022-12-08T15:46:54;2.10;99.90
15698;DHT22;7949;48.726;9.102;2022-12-08T15:49:22;2.00;99.90
15698;DHT22;7949;48.726;9.102;2022-12-08T15:51:50;2.10;99.90
15698;DHT22;7949;48.726;9.102;2022-12-08T15:54:17;2.00;99.90
15698;DHT22;7949;48.726;9.102;2022-12-08T15:56:46;1.90;99.90
15698;DHT22;7949;48.726;9.102;2022-12-08T15:59:19;1.90;99.90
15698;DHT22;7949;48.726;9.102;2022-12-08T16:01:46;1.90;99.90
15698;DHT22;7949;48.726;9.102;2022-12-08T16:04:14;1.90;99.90
15698;DHT22;7949;48.726;9.102;2022-12-08T16:06:42;1.90;99.90
15698;DHT22;7949;48.726;9.102;2022-12-08T16:09:14;1.90;99.90
15698;DHT22;7949;48.726;9.102;2022-12-08T16:11:41;1.90;99.90
15698;DHT22;7949;48.726;9.102;2022-12-08T16:14:27;1.90;99.90
15698;DHT22;7949;48.726;9.102;2022-12-08T16:16:54;1.90;99.90
15698;DHT22;7949;48.726;9.102;2022-12-08T16:19:21;1.80;99.90
15698;DHT22;7949;48.726;9.102;2022-12-08T16:21:48;1.90;99.90
15698;DHT22;7949;48.726;9.102;2022-12-08T16:24:14;1.90;99.90